createdAt,value
2017-03-02T00:00:16.645Z,0
2017-03-02T00:01:16.684Z,0
2017-03-02T00:02:16.686Z,0
2017-03-02T00:03:16.694Z,0
2017-03-02T00:04:16.704Z,0
2017-03-02T00:05:16.743Z,0
2017-03-02T00:06:15.971Z,0
2017-03-02T00:07:16.799Z,0
2017-03-02T00:08:16.770Z,0
2017-03-02T00:09:16.801Z,0
2017-03-02T00:10:16.807Z,0
2017-03-02T00:11:16.830Z,0
2017-03-02T00:12:31.371Z,0
2017-03-02T00:13:31.553Z,0
2017-03-02T00:14:16.871Z,0
2017-03-02T00:15:17.098Z,0
2017-03-02T00:16:16.519Z,0
2017-03-02T00:17:31.648Z,0
2017-03-02T00:18:16.969Z,0
2017-03-02T00:19:16.984Z,0
2017-03-02T00:20:16.994Z,0
2017-03-02T00:21:16.997Z,0
2017-03-02T00:22:17.004Z,0
2017-03-02T00:23:17.026Z,0
2017-03-02T00:24:31.178Z,0
2017-03-02T00:25:31.584Z,0
2017-03-02T00:26:17.066Z,0
2017-03-02T00:27:17.099Z,0
2017-03-02T00:28:17.102Z,0
2017-03-02T00:29:31.653Z,0
2017-03-02T00:30:17.161Z,0
2017-03-02T00:31:17.153Z,0
2017-03-02T00:32:17.174Z,0
2017-03-02T00:33:17.197Z,0
2017-03-02T00:34:17.203Z,0
2017-03-02T00:35:31.745Z,0
2017-03-02T00:36:17.250Z,0
2017-03-02T00:37:17.291Z,0
2017-03-02T00:38:17.274Z,0
2017-03-02T00:39:17.297Z,0
2017-03-02T00:40:31.832Z,0
2017-03-02T00:42:17.333Z,0
2017-03-02T00:44:31.896Z,0
2017-03-02T00:45:17.410Z,0
2017-03-02T00:46:17.034Z,0
2017-03-02T00:47:17.568Z,0
2017-03-02T00:48:17.464Z,0
2017-03-02T00:49:17.469Z,0
2017-03-02T00:50:17.470Z,0
2017-03-02T00:51:17.493Z,0
2017-03-02T00:53:17.520Z,0
2017-03-02T00:54:31.682Z,0
2017-03-02T00:55:17.176Z,0
2017-03-02T00:56:32.093Z,0
2017-03-02T00:57:17.588Z,0
2017-03-02T00:58:17.608Z,0
2017-03-02T00:59:32.165Z,0
2017-03-02T01:00:17.254Z,0
2017-03-02T01:01:17.662Z,0
2017-03-02T01:02:17.684Z,0
2017-03-02T01:03:17.702Z,0
2017-03-02T01:04:17.706Z,0
2017-03-02T01:05:17.716Z,0
2017-03-02T01:06:17.746Z,0
2017-03-02T01:07:17.760Z,0
2017-03-02T01:08:32.307Z,0
2017-03-02T01:09:17.436Z,0
2017-03-02T01:10:17.806Z,0
2017-03-02T01:11:17.849Z,0
2017-03-02T01:12:31.985Z,0
2017-03-02T01:13:17.867Z,0
2017-03-02T01:14:18.218Z,0
2017-03-02T01:15:17.886Z,0
2017-03-02T01:16:17.916Z,0
2017-03-02T01:17:17.929Z,0
2017-03-02T01:18:17.955Z,0
2017-03-02T01:19:17.959Z,0
2017-03-02T01:20:17.227Z,0
2017-03-02T01:21:17.212Z,0
2017-03-02T01:22:18.014Z,0
2017-03-02T01:23:17.645Z,0
2017-03-02T01:24:18.044Z,0
2017-03-02T01:25:18.271Z,0
2017-03-02T01:26:18.076Z,0
2017-03-02T01:27:32.617Z,0
2017-03-02T01:28:18.138Z,0
2017-03-02T01:29:18.143Z,0
2017-03-02T01:30:18.147Z,0
2017-03-02T01:31:17.769Z,0
2017-03-02T01:32:18.171Z,0
2017-03-02T01:33:18.209Z,0
2017-03-02T01:34:18.214Z,0
2017-03-02T01:35:32.765Z,0
2017-03-02T01:36:18.244Z,0
2017-03-02T01:37:18.261Z,0
2017-03-02T01:38:18.282Z,0
2017-03-02T01:40:32.460Z,0
2017-03-02T01:41:18.350Z,0
2017-03-02T01:42:32.874Z,0
2017-03-02T01:43:18.372Z,0
2017-03-02T01:44:18.391Z,0
2017-03-02T01:45:18.021Z,0
2017-03-02T01:46:18.404Z,0
2017-03-02T01:47:18.429Z,0
2017-03-02T01:48:18.449Z,0
2017-03-02T01:49:18.477Z,0
2017-03-02T01:50:33.002Z,0
2017-03-02T01:51:18.504Z,0
2017-03-02T01:52:18.527Z,0
2017-03-02T01:53:33.059Z,0
2017-03-02T01:55:18.566Z,0
2017-03-02T01:56:18.771Z,0
2017-03-02T01:57:18.588Z,0
2017-03-02T01:58:18.625Z,0
2017-03-02T01:59:47.692Z,0
2017-03-02T02:01:18.662Z,0
2017-03-02T02:02:18.693Z,0
2017-03-02T02:03:18.707Z,0
2017-03-02T02:04:18.732Z,0
2017-03-02T02:05:18.336Z,0
2017-03-02T02:06:18.756Z,0
2017-03-02T02:07:18.780Z,0
2017-03-02T02:08:18.779Z,0
2017-03-02T02:09:33.320Z,0
2017-03-02T02:10:18.814Z,0
2017-03-02T02:11:18.833Z,0
2017-03-02T02:12:33.398Z,0
2017-03-02T02:13:18.865Z,0
2017-03-02T02:14:18.879Z,0
2017-03-02T02:15:33.425Z,0
2017-03-02T02:16:18.936Z,0
2017-03-02T02:17:18.951Z,0
2017-03-02T02:20:18.989Z,0
2017-03-02T02:21:33.525Z,0
2017-03-02T02:22:33.541Z,0
2017-03-02T02:23:18.663Z,0
2017-03-02T02:24:19.044Z,0
2017-03-02T02:25:18.681Z,0
2017-03-02T02:26:19.107Z,0
2017-03-02T02:27:19.102Z,0
2017-03-02T02:28:19.149Z,0
2017-03-02T02:29:18.767Z,0
2017-03-02T02:30:33.685Z,0
2017-03-02T02:31:33.694Z,0
2017-03-02T02:32:18.792Z,0
2017-03-02T02:33:33.734Z,0
2017-03-02T02:34:19.248Z,0
2017-03-02T02:35:19.286Z,0
2017-03-02T02:36:19.272Z,0
2017-03-02T02:37:18.895Z,0
2017-03-02T02:40:18.928Z,0
2017-03-02T02:41:18.952Z,0
2017-03-02T02:42:19.360Z,0
2017-03-02T02:43:33.894Z,0
2017-03-02T02:44:19.003Z,0
2017-03-02T02:45:19.400Z,0
2017-03-02T02:46:33.951Z,0
2017-03-02T02:47:33.967Z,0
2017-03-02T02:48:19.134Z,0
2017-03-02T02:49:33.621Z,0
2017-03-02T02:50:19.489Z,0
2017-03-02T02:51:19.539Z,0
2017-03-02T02:52:34.062Z,0
2017-03-02T02:53:19.574Z,0
2017-03-02T02:54:19.577Z,0
2017-03-02T02:55:19.586Z,0
2017-03-02T02:56:19.201Z,0
2017-03-02T02:57:19.634Z,0
2017-03-02T02:58:34.149Z,0
2017-03-02T02:59:19.650Z,0
2017-03-02T03:00:19.657Z,0
2017-03-02T03:01:19.676Z,0
2017-03-02T03:02:34.251Z,0
2017-03-02T03:03:19.721Z,0
2017-03-02T03:04:19.752Z,0
2017-03-02T03:05:19.746Z,0
2017-03-02T03:06:19.759Z,0
2017-03-02T03:07:34.307Z,0
2017-03-02T03:08:34.321Z,0
2017-03-02T03:09:19.833Z,0
2017-03-02T03:10:19.857Z,0
2017-03-02T03:11:19.849Z,0
2017-03-02T03:13:34.422Z,0
2017-03-02T03:14:19.907Z,0
2017-03-02T03:15:19.926Z,0
2017-03-02T03:16:19.940Z,0
2017-03-02T03:17:19.951Z,0
2017-03-02T03:18:19.580Z,0
2017-03-02T03:19:19.985Z,0
2017-03-02T03:20:20.024Z,0
2017-03-02T03:21:19.629Z,0
2017-03-02T03:22:34.566Z,0
2017-03-02T03:23:19.694Z,0
2017-03-02T03:24:20.126Z,0
2017-03-02T03:25:20.120Z,0
2017-03-02T03:26:20.131Z,0
2017-03-02T03:27:34.662Z,0
2017-03-02T03:28:20.141Z,0
2017-03-02T03:29:19.769Z,0
2017-03-02T03:30:19.792Z,0
2017-03-02T03:31:20.217Z,0
2017-03-02T03:32:20.215Z,0
2017-03-02T03:33:20.221Z,0
2017-03-02T03:34:34.767Z,0
2017-03-02T03:35:20.290Z,0
2017-03-02T03:36:20.308Z,0
2017-03-02T03:37:34.821Z,0
2017-03-02T03:38:20.324Z,0
2017-03-02T03:40:20.342Z,0
2017-03-02T03:41:20.370Z,0
2017-03-02T03:42:20.390Z,0
2017-03-02T03:43:34.919Z,0
2017-03-02T03:44:20.436Z,0
2017-03-02T03:45:20.421Z,0
2017-03-02T03:46:20.440Z,0
2017-03-02T03:47:20.463Z,0
2017-03-02T03:48:34.616Z,0
2017-03-02T03:49:20.497Z,0
2017-03-02T03:50:35.038Z,0
2017-03-02T03:51:20.526Z,0
2017-03-02T03:52:20.656Z,0
2017-03-02T03:53:20.562Z,0
2017-03-02T03:54:20.591Z,0
2017-03-02T03:55:35.123Z,0
2017-03-02T03:56:20.669Z,0
2017-03-02T03:57:20.268Z,0
2017-03-02T03:58:20.671Z,0
2017-03-02T03:59:20.674Z,0
2017-03-02T04:00:20.681Z,0
2017-03-02T04:01:35.224Z,0
2017-03-02T04:02:34.873Z,0
2017-03-02T04:03:20.752Z,0
2017-03-02T04:04:20.364Z,0
2017-03-02T04:05:35.306Z,0
2017-03-02T04:06:35.310Z,0
2017-03-02T04:07:35.332Z,0
2017-03-02T04:08:20.823Z,0
2017-03-02T04:09:20.835Z,0
2017-03-02T04:10:20.861Z,0
2017-03-02T04:11:20.869Z,0
2017-03-02T04:12:35.416Z,0
2017-03-02T04:13:20.940Z,0
2017-03-02T04:14:20.929Z,0
2017-03-02T04:15:20.943Z,0
2017-03-02T04:16:20.997Z,0
2017-03-02T04:17:20.995Z,0
2017-03-02T04:18:21.008Z,0
2017-03-02T04:19:21.316Z,0
2017-03-02T04:20:21.022Z,0
2017-03-02T04:21:21.048Z,0
2017-03-02T04:22:35.584Z,0
2017-03-02T04:23:21.079Z,0
2017-03-02T04:24:21.127Z,0
2017-03-02T04:25:21.112Z,0
2017-03-02T04:26:21.150Z,0
2017-03-02T04:27:21.144Z,0
2017-03-02T04:29:21.203Z,0
2017-03-02T04:31:21.209Z,0
2017-03-02T04:33:21.252Z,0
2017-03-02T04:34:21.261Z,0
2017-03-02T04:35:21.301Z,0
2017-03-02T04:36:21.320Z,0
2017-03-02T04:37:35.846Z,0
2017-03-02T04:38:20.981Z,0
2017-03-02T04:39:21.346Z,0
2017-03-02T04:40:21.394Z,0
2017-03-02T04:41:21.397Z,0
2017-03-02T04:42:35.930Z,0
2017-03-02T04:43:21.418Z,0
2017-03-02T04:44:21.063Z,0
2017-03-02T04:45:21.084Z,0
2017-03-02T04:46:21.494Z,0
2017-03-02T04:47:21.489Z,0
2017-03-02T04:48:21.506Z,0
2017-03-02T04:49:21.553Z,0
2017-03-02T04:50:21.187Z,0
2017-03-02T04:52:21.189Z,0
2017-03-02T04:53:21.599Z,0
2017-03-02T04:54:21.612Z,0
2017-03-02T04:55:21.626Z,0
2017-03-02T04:56:21.672Z,0
2017-03-02T04:57:21.279Z,0
2017-03-02T04:58:21.295Z,0
2017-03-02T04:59:36.227Z,0
2017-03-02T05:00:36.243Z,0
2017-03-02T05:01:21.728Z,0
2017-03-02T05:02:21.762Z,0
2017-03-02T05:03:21.778Z,0
2017-03-02T05:04:21.804Z,0
2017-03-02T05:05:21.803Z,0
2017-03-02T05:06:21.453Z,0
2017-03-02T05:07:21.838Z,0
2017-03-02T05:08:21.858Z,0
2017-03-02T05:09:36.402Z,0
2017-03-02T05:12:36.452Z,0
2017-03-02T05:13:21.942Z,0
2017-03-02T05:14:36.483Z,0
2017-03-02T05:15:22.008Z,0
2017-03-02T05:16:21.996Z,0
2017-03-02T05:17:22.020Z,0
2017-03-02T05:18:22.060Z,0
2017-03-02T05:19:22.041Z,0
2017-03-02T05:20:21.679Z,0
2017-03-02T05:22:22.106Z,0
2017-03-02T05:23:22.134Z,0
2017-03-02T05:24:22.153Z,0
2017-03-02T05:25:36.678Z,0
2017-03-02T05:26:22.172Z,0
2017-03-02T05:27:36.729Z,0
2017-03-02T05:29:22.253Z,0
2017-03-02T05:30:36.765Z,4
2017-03-02T05:31:22.252Z,4
2017-03-02T05:32:22.298Z,4
2017-03-02T05:34:22.316Z,8
2017-03-02T05:35:36.851Z,8
2017-03-02T05:36:22.339Z,4
2017-03-02T05:37:21.998Z,4
2017-03-02T05:38:22.012Z,8
2017-03-02T05:39:22.395Z,8
2017-03-02T05:40:36.962Z,8
2017-03-02T05:41:36.956Z,12
2017-03-02T05:42:22.489Z,12
2017-03-02T05:43:22.467Z,12
2017-03-02T05:44:22.109Z,16
2017-03-02T05:45:22.499Z,20
2017-03-02T05:46:22.137Z,24
2017-03-02T05:47:22.563Z,28
2017-03-02T05:48:22.175Z,28
2017-03-02T05:49:22.603Z,40
2017-03-02T05:50:22.588Z,36
2017-03-02T05:52:22.639Z,48
2017-03-02T05:53:22.643Z,56
2017-03-02T05:54:22.671Z,68
2017-03-02T05:55:36.818Z,96
2017-03-02T05:56:37.227Z,88
2017-03-02T05:57:37.240Z,64
2017-03-02T05:58:22.738Z,60
2017-03-02T05:59:22.741Z,68
2017-03-02T06:00:22.796Z,80
2017-03-02T06:01:22.813Z,108
2017-03-02T06:02:22.037Z,136
2017-03-02T06:03:22.825Z,144
2017-03-02T06:04:37.380Z,148
2017-03-02T06:05:22.866Z,140
2017-03-02T06:06:22.892Z,128
2017-03-02T06:07:22.909Z,116
2017-03-02T06:08:22.544Z,108
2017-03-02T06:10:37.497Z,136
2017-03-02T06:11:22.990Z,156
2017-03-02T06:12:37.120Z,196
2017-03-02T06:13:23.011Z,220
2017-03-02T06:14:23.048Z,212
2017-03-02T06:15:23.041Z,164
2017-03-02T06:16:22.679Z,124
2017-03-02T06:17:23.087Z,112
2017-03-02T06:18:37.231Z,88
2017-03-02T06:19:23.103Z,76
2017-03-02T06:20:23.137Z,96
2017-03-02T06:21:23.148Z,152
2017-03-02T06:22:37.309Z,172
2017-03-02T06:23:23.212Z,180
2017-03-02T06:24:23.222Z,216
2017-03-02T06:25:23.226Z,248
2017-03-02T06:26:23.254Z,280
2017-03-02T06:27:22.889Z,320
2017-03-02T06:28:23.284Z,368
2017-03-02T06:29:23.309Z,340
2017-03-02T06:30:37.845Z,300
2017-03-02T06:31:23.346Z,272
2017-03-02T06:32:23.146Z,320
2017-03-02T06:33:37.880Z,348
2017-03-02T06:34:23.397Z,372
2017-03-02T06:35:23.408Z,384
2017-03-02T06:37:23.068Z,464
2017-03-02T06:39:23.472Z,476
2017-03-02T06:40:23.125Z,480
2017-03-02T06:41:23.496Z,560
2017-03-02T06:42:38.049Z,648
2017-03-02T06:43:23.151Z,740
2017-03-02T06:44:38.084Z,1240
2017-03-02T06:45:23.195Z,1412
2017-03-02T06:47:23.628Z,2044
2017-03-02T06:48:23.632Z,2376
2017-03-02T06:49:38.173Z,2656
2017-03-02T06:50:23.680Z,2420
2017-03-02T06:51:22.911Z,1900
2017-03-02T06:52:23.721Z,1296
2017-03-02T06:53:23.739Z,1048
2017-03-02T06:54:23.757Z,1216
2017-03-02T06:55:23.777Z,1564
2017-03-02T06:56:23.403Z,2132
2017-03-02T06:57:23.821Z,2552
2017-03-02T06:58:23.822Z,2616
2017-03-02T06:59:24.276Z,3240
2017-03-02T07:00:38.020Z,2984
2017-03-02T07:01:23.862Z,2668
2017-03-02T07:02:23.901Z,2404
2017-03-02T07:03:23.903Z,1668
2017-03-02T07:04:38.464Z,1624
2017-03-02T07:07:23.971Z,2160
2017-03-02T07:08:23.992Z,1808
2017-03-02T07:10:23.670Z,2464
2017-03-02T07:11:23.662Z,4456
2017-03-02T07:12:38.606Z,5056
2017-03-02T07:13:23.718Z,9460
2017-03-02T07:14:38.646Z,5420
2017-03-02T07:15:38.656Z,2616
2017-03-02T07:16:38.280Z,2716
2017-03-02T07:17:23.800Z,3292
2017-03-02T07:18:23.800Z,3156
2017-03-02T07:19:38.729Z,3000
2017-03-02T07:20:24.223Z,3468
2017-03-02T07:21:24.252Z,3364
2017-03-02T07:23:24.271Z,3392
2017-03-02T07:24:23.899Z,3852
2017-03-02T07:25:24.345Z,3272
2017-03-02T07:26:23.964Z,3436
2017-03-02T07:27:24.353Z,4336
2017-03-02T07:28:24.364Z,4300
2017-03-02T07:29:24.385Z,5004
2017-03-02T07:30:24.405Z,4416
2017-03-02T07:31:24.422Z,3912
2017-03-02T07:32:38.972Z,2756
2017-03-02T07:33:24.463Z,4016
2017-03-02T07:34:24.502Z,8176
2017-03-02T07:35:24.499Z,4564
2017-03-02T07:36:24.549Z,4292
2017-03-02T07:37:24.554Z,4280
2017-03-02T07:38:24.558Z,3268
2017-03-02T07:39:24.576Z,3156
2017-03-02T07:40:24.232Z,3328
2017-03-02T07:41:24.617Z,3732
2017-03-02T07:42:24.635Z,3308
2017-03-02T07:43:24.654Z,2904
2017-03-02T07:44:24.711Z,2872
2017-03-02T07:45:24.692Z,3056
2017-03-02T07:46:24.745Z,3132
2017-03-02T07:47:53.789Z,2340
2017-03-02T07:48:24.785Z,2456
2017-03-02T07:49:39.323Z,2488
2017-03-02T07:50:24.791Z,1988
2017-03-02T07:51:24.823Z,1972
2017-03-02T07:52:24.828Z,1600
2017-03-02T07:55:24.501Z,1224
2017-03-02T07:56:24.938Z,1468
2017-03-02T07:57:24.925Z,1292
2017-03-02T07:58:24.951Z,1284
2017-03-02T08:00:24.984Z,1288
2017-03-02T08:01:39.545Z,1284
2017-03-02T08:02:25.043Z,1196
2017-03-02T08:03:25.068Z,1176
2017-03-02T08:04:24.684Z,1212
2017-03-02T08:05:24.701Z,1428
2017-03-02T08:06:25.119Z,1328
2017-03-02T08:07:25.119Z,1048
2017-03-02T08:08:25.164Z,932
2017-03-02T08:09:25.199Z,1008
2017-03-02T08:10:25.185Z,1052
2017-03-02T08:11:25.201Z,996
2017-03-02T08:12:25.217Z,932
2017-03-02T08:13:24.881Z,932
2017-03-02T08:14:25.260Z,752
2017-03-02T08:16:24.918Z,504
2017-03-02T08:17:24.956Z,436
2017-03-02T08:18:25.339Z,368
2017-03-02T08:19:39.495Z,396
2017-03-02T08:20:25.391Z,440
2017-03-02T08:21:25.016Z,608
2017-03-02T08:22:25.440Z,672
2017-03-02T08:23:25.260Z,784
2017-03-02T08:24:25.486Z,804
2017-03-02T08:25:25.502Z,740
2017-03-02T08:26:25.506Z,692
2017-03-02T08:27:24.747Z,576
2017-03-02T08:28:25.559Z,644
2017-03-02T08:29:24.773Z,652
2017-03-02T08:30:25.614Z,692
2017-03-02T08:32:25.226Z,1236
2017-03-02T08:33:25.246Z,1208
2017-03-02T08:34:25.667Z,1360
2017-03-02T08:35:40.192Z,1260
2017-03-02T08:36:26.112Z,968
2017-03-02T08:37:25.723Z,632
2017-03-02T08:38:40.251Z,616
2017-03-02T08:39:25.749Z,576
2017-03-02T08:40:39.942Z,488
2017-03-02T08:41:25.798Z,612
2017-03-02T08:42:25.447Z,648
2017-03-02T08:43:25.831Z,548
2017-03-02T08:44:25.863Z,584
2017-03-02T08:45:25.853Z,572
2017-03-02T08:46:25.883Z,528
2017-03-02T08:47:25.904Z,612
2017-03-02T08:48:24.743Z,620
2017-03-02T08:49:25.956Z,692
2017-03-02T08:50:25.963Z,756
2017-03-02T08:51:40.108Z,800
2017-03-02T08:52:25.608Z,848
2017-03-02T08:53:26.033Z,916
2017-03-02T08:54:40.551Z,988
2017-03-02T08:55:26.031Z,940
2017-03-02T08:56:40.590Z,984
2017-03-02T08:57:26.074Z,984
2017-03-02T08:58:26.118Z,1076
2017-03-02T08:59:26.128Z,1296
2017-03-02T09:00:26.135Z,1584
2017-03-02T09:01:26.166Z,1780
2017-03-02T09:02:26.165Z,1856
2017-03-02T09:03:26.193Z,2028
2017-03-02T09:04:40.741Z,2200
2017-03-02T09:05:26.219Z,2176
2017-03-02T09:06:26.240Z,2060
2017-03-02T09:07:40.411Z,1724
2017-03-02T09:08:25.892Z,1668
2017-03-02T09:09:26.307Z,1612
2017-03-02T09:10:25.924Z,1724
2017-03-02T09:11:25.948Z,1712
2017-03-02T09:12:26.350Z,1500
2017-03-02T09:13:26.378Z,1520
2017-03-02T09:14:26.383Z,1276
2017-03-02T09:15:26.413Z,1244
2017-03-02T09:16:26.442Z,1336
2017-03-02T09:17:26.442Z,1368
2017-03-02T09:18:26.484Z,1352
2017-03-02T09:19:26.489Z,1596
2017-03-02T09:20:26.506Z,1672
2017-03-02T09:21:26.128Z,1812
2017-03-02T09:22:41.063Z,2428
2017-03-02T09:23:26.553Z,2444
2017-03-02T09:24:26.569Z,3052
2017-03-02T09:25:41.140Z,3652
2017-03-02T09:27:26.626Z,3608
2017-03-02T09:28:40.807Z,3468
2017-03-02T09:29:26.678Z,3184
2017-03-02T09:30:26.684Z,3212
2017-03-02T09:31:26.699Z,3224
2017-03-02T09:32:26.722Z,2556
2017-03-02T09:33:26.747Z,2640
2017-03-02T09:34:26.388Z,3132
2017-03-02T09:35:26.405Z,3056
2017-03-02T09:36:26.794Z,4216
2017-03-02T09:37:40.999Z,5088
2017-03-02T09:38:26.831Z,5572
2017-03-02T09:39:26.887Z,5768
2017-03-02T09:41:26.502Z,6792
2017-03-02T09:42:26.518Z,7076
2017-03-02T09:43:26.952Z,9716
2017-03-02T09:44:26.965Z,8732
2017-03-02T09:45:26.965Z,9200
2017-03-02T09:47:27.011Z,8272
2017-03-02T09:48:26.644Z,7328
2017-03-02T09:49:27.041Z,6796
2017-03-02T09:50:41.603Z,6808
2017-03-02T09:51:27.079Z,6900
2017-03-02T09:52:27.099Z,6952
2017-03-02T09:53:41.659Z,7396
2017-03-02T09:54:41.293Z,8108
2017-03-02T09:55:27.165Z,7740
2017-03-02T09:56:27.180Z,4808
2017-03-02T09:57:27.203Z,3096
2017-03-02T09:58:27.237Z,3264
2017-03-02T09:59:26.862Z,3860
2017-03-02T10:00:27.288Z,4960
2017-03-02T10:01:27.280Z,5632
2017-03-02T10:02:27.306Z,4888
2017-03-02T10:03:27.317Z,4244
2017-03-02T10:04:27.340Z,4408
2017-03-02T10:05:27.373Z,3888
2017-03-02T10:06:27.375Z,4316
2017-03-02T10:07:26.648Z,5108
2017-03-02T10:08:27.052Z,4268
2017-03-02T10:09:27.453Z,3520
2017-03-02T10:10:56.128Z,3660
2017-03-02T10:11:26.718Z,3852
2017-03-02T10:12:27.120Z,5180
2017-03-02T10:13:27.167Z,4428
2017-03-02T10:14:27.576Z,3812
2017-03-02T10:15:26.800Z,4232
2017-03-02T10:16:27.633Z,4156
2017-03-02T10:17:27.223Z,3744
2017-03-02T10:18:42.162Z,4176
2017-03-02T10:19:27.649Z,4552
2017-03-02T10:20:27.652Z,5164
2017-03-02T10:21:27.701Z,4656
2017-03-02T10:22:27.321Z,4164
2017-03-02T10:23:27.333Z,4232
2017-03-02T10:24:27.740Z,4168
2017-03-02T10:25:27.754Z,5200
2017-03-02T10:26:42.300Z,5164
2017-03-02T10:28:27.815Z,6752
2017-03-02T10:29:27.866Z,6064
2017-03-02T10:30:42.381Z,6140
2017-03-02T10:31:27.902Z,5664
2017-03-02T10:32:27.908Z,6584
2017-03-02T10:33:42.462Z,7200
2017-03-02T10:34:27.932Z,7384
2017-03-02T10:35:27.965Z,6632
2017-03-02T10:36:27.597Z,5676
2017-03-02T10:37:28.019Z,5296
2017-03-02T10:38:28.020Z,5260
2017-03-02T10:39:42.568Z,4184
2017-03-02T10:40:28.109Z,3596
2017-03-02T10:41:28.071Z,3228
2017-03-02T10:42:42.639Z,2756
2017-03-02T10:43:28.111Z,2520
2017-03-02T10:44:28.144Z,2256
2017-03-02T10:45:27.765Z,2136
2017-03-02T10:47:42.720Z,1684
2017-03-02T10:48:28.609Z,1492
2017-03-02T10:49:28.241Z,1364
2017-03-02T10:50:27.893Z,1312
2017-03-02T10:51:28.295Z,1276
2017-03-02T10:52:42.818Z,1204
2017-03-02T10:53:28.317Z,1152
2017-03-02T10:54:42.869Z,1064
2017-03-02T10:55:27.579Z,1016
2017-03-02T10:56:28.373Z,1040
2017-03-02T10:58:28.408Z,1160
2017-03-02T10:59:28.435Z,1176
2017-03-02T11:00:42.992Z,1192
2017-03-02T11:01:28.086Z,1256
2017-03-02T11:02:28.105Z,1244
2017-03-02T11:03:28.145Z,1240
2017-03-02T11:04:28.535Z,1244
2017-03-02T11:05:28.547Z,1208
2017-03-02T11:06:28.608Z,1236
2017-03-02T11:07:43.110Z,1212
2017-03-02T11:09:28.624Z,1184
2017-03-02T11:10:28.659Z,1268
2017-03-02T11:11:28.682Z,1516
2017-03-02T11:12:28.289Z,1564
2017-03-02T11:13:28.324Z,1516
2017-03-02T11:14:28.715Z,1412
2017-03-02T11:15:28.739Z,1520
2017-03-02T11:16:28.751Z,1700
2017-03-02T11:17:28.783Z,1852
2017-03-02T11:18:28.793Z,1988
2017-03-02T11:19:28.808Z,1952
2017-03-02T11:20:28.831Z,1924
2017-03-02T11:21:28.845Z,2048
2017-03-02T11:22:28.884Z,1972
2017-03-02T11:23:28.893Z,2032
2017-03-02T11:24:43.447Z,1840
2017-03-02T11:25:28.549Z,1744
2017-03-02T11:26:28.953Z,1836
2017-03-02T11:27:28.963Z,1940
2017-03-02T11:28:29.445Z,2472
2017-03-02T11:29:43.729Z,2484
2017-03-02T11:30:29.020Z,2208
2017-03-02T11:31:29.051Z,2056
2017-03-02T11:32:43.586Z,2340
2017-03-02T11:34:29.105Z,2056
2017-03-02T11:35:29.153Z,1840
2017-03-02T11:36:29.168Z,2208
2017-03-02T11:37:28.775Z,2312
2017-03-02T11:38:43.698Z,2104
2017-03-02T11:39:43.715Z,2232
2017-03-02T11:40:29.231Z,2544
2017-03-02T11:41:28.452Z,2880
2017-03-02T11:42:28.860Z,3344
2017-03-02T11:43:29.265Z,2936
2017-03-02T11:44:43.423Z,3380
2017-03-02T11:45:43.855Z,3620
2017-03-02T11:46:29.330Z,3724
2017-03-02T11:47:29.363Z,3748
2017-03-02T11:48:29.368Z,4492
2017-03-02T11:49:28.994Z,4524
2017-03-02T11:50:29.412Z,4956
2017-03-02T11:51:29.419Z,5508
2017-03-02T11:52:29.435Z,5592
2017-03-02T11:53:29.086Z,5440
2017-03-02T11:54:29.475Z,5548
2017-03-02T11:55:29.508Z,5872
2017-03-02T11:56:29.524Z,5328
2017-03-02T11:57:29.145Z,5272
2017-03-02T11:58:29.550Z,5120
2017-03-02T11:59:29.570Z,5084
2017-03-02T12:00:29.208Z,5324
2017-03-02T12:01:43.751Z,4984
2017-03-02T12:02:29.242Z,4728
2017-03-02T12:03:29.651Z,4948
2017-03-02T12:04:44.210Z,4744
2017-03-02T12:05:29.301Z,4620
2017-03-02T12:06:29.706Z,4692
2017-03-02T12:07:29.349Z,4808
2017-03-02T12:08:29.378Z,4888
2017-03-02T12:09:29.211Z,4344
2017-03-02T12:10:29.402Z,4184
2017-03-02T12:11:29.812Z,3860
2017-03-02T12:12:29.833Z,3704
2017-03-02T12:13:44.003Z,3772
2017-03-02T12:14:29.876Z,3492
2017-03-02T12:15:29.518Z,3604
2017-03-02T12:16:29.935Z,3072
2017-03-02T12:17:44.459Z,2720
2017-03-02T12:18:29.625Z,2812
2017-03-02T12:19:29.966Z,2640
2017-03-02T12:20:29.596Z,2424
2017-03-02T12:21:29.233Z,2564
2017-03-02T12:22:29.266Z,2644
2017-03-02T12:24:29.691Z,2560
2017-03-02T12:25:44.612Z,2428
2017-03-02T12:26:30.110Z,2476
2017-03-02T12:27:29.743Z,2460
2017-03-02T12:28:28.980Z,2380
2017-03-02T12:29:30.179Z,2368
2017-03-02T12:30:30.179Z,2552
2017-03-02T12:31:29.813Z,3028
2017-03-02T12:32:59.273Z,3972
2017-03-02T12:33:30.242Z,4256
2017-03-02T12:34:30.257Z,4680
2017-03-02T12:35:30.281Z,4808
2017-03-02T12:36:44.826Z,4620
2017-03-02T12:37:29.932Z,4628
2017-03-02T12:38:30.347Z,4424
2017-03-02T12:40:30.402Z,4124
2017-03-02T12:41:30.393Z,3828
2017-03-02T12:42:30.423Z,3532
2017-03-02T12:44:44.595Z,4104
2017-03-02T12:45:30.472Z,3996
2017-03-02T12:46:30.494Z,4156
2017-03-02T12:47:30.125Z,4232
2017-03-02T12:49:30.577Z,4276
2017-03-02T12:50:45.102Z,3468
2017-03-02T12:51:30.598Z,2816
2017-03-02T12:52:30.628Z,2276
2017-03-02T12:53:30.632Z,2352
2017-03-02T12:54:30.672Z,2612
2017-03-02T12:55:30.667Z,2668
2017-03-02T12:56:30.684Z,2896
2017-03-02T12:57:30.727Z,2680
2017-03-02T12:58:30.341Z,2840
2017-03-02T12:59:30.747Z,4560
2017-03-02T13:00:30.763Z,4700
2017-03-02T13:01:30.807Z,4412
2017-03-02T13:02:30.841Z,4220
2017-03-02T13:03:45.362Z,3076
2017-03-02T13:04:45.371Z,2548
2017-03-02T13:05:30.887Z,2308
2017-03-02T13:06:30.899Z,2064
2017-03-02T13:07:30.523Z,1828
2017-03-02T13:08:30.934Z,1772
2017-03-02T13:09:30.942Z,1788
2017-03-02T13:10:30.970Z,1708
2017-03-02T13:11:30.979Z,1764
2017-03-02T13:12:30.998Z,1788
2017-03-02T13:13:45.544Z,1636
2017-03-02T13:14:31.044Z,1572
2017-03-02T13:15:31.071Z,1816
2017-03-02T13:16:31.106Z,1724
2017-03-02T13:17:31.094Z,1700
2017-03-02T13:19:31.139Z,1404
2017-03-02T13:21:00.205Z,1524
2017-03-02T13:21:31.206Z,1624
2017-03-02T13:22:31.213Z,1656
2017-03-02T13:23:30.818Z,1640
2017-03-02T13:24:31.229Z,1708
2017-03-02T13:26:45.791Z,1808
2017-03-02T13:27:31.314Z,1468
2017-03-02T13:28:31.315Z,1416
2017-03-02T13:29:31.327Z,1500
2017-03-02T13:30:31.347Z,1244
2017-03-02T13:31:45.898Z,1120
2017-03-02T13:32:31.397Z,1100
2017-03-02T13:33:31.415Z,1040
2017-03-02T13:34:45.567Z,1012
2017-03-02T13:35:31.436Z,1100
2017-03-02T13:36:46.014Z,1148
2017-03-02T13:37:31.480Z,1196
2017-03-02T13:38:31.118Z,1296
2017-03-02T13:39:31.517Z,1208
2017-03-02T13:40:31.549Z,1160
2017-03-02T13:41:46.079Z,1112
2017-03-02T13:42:31.579Z,1032
2017-03-02T13:43:46.121Z,1072
2017-03-02T13:45:31.266Z,1200
2017-03-02T13:46:31.655Z,1468
2017-03-02T13:47:31.673Z,1748
2017-03-02T13:48:31.705Z,1888
2017-03-02T13:49:31.321Z,1732
2017-03-02T13:50:31.753Z,1924
2017-03-02T13:51:31.742Z,2092
2017-03-02T13:52:46.287Z,1980
2017-03-02T13:53:31.782Z,1848
2017-03-02T13:54:31.798Z,1700
2017-03-02T13:55:31.816Z,1732
2017-03-02T13:56:31.848Z,1736
2017-03-02T13:57:46.395Z,1636
2017-03-02T13:58:31.098Z,1792
2017-03-02T14:01:31.932Z,2648
2017-03-02T14:02:31.954Z,2416
2017-03-02T14:03:46.509Z,2292
2017-03-02T14:04:31.611Z,2388
2017-03-02T14:05:46.147Z,2424
2017-03-02T14:06:32.026Z,2264
2017-03-02T14:07:46.591Z,2248
2017-03-02T14:08:46.605Z,2516
2017-03-02T14:09:31.315Z,2548
2017-03-02T14:10:31.731Z,2488
2017-03-02T14:11:32.145Z,2580
2017-03-02T14:12:46.684Z,2340
2017-03-02T14:13:31.795Z,2120
2017-03-02T14:14:31.790Z,2012
2017-03-02T14:15:31.425Z,1824
2017-03-02T14:16:31.845Z,1624
2017-03-02T14:17:46.762Z,1312
2017-03-02T14:18:32.273Z,1184
2017-03-02T14:19:32.282Z,1004
2017-03-02T14:20:31.911Z,1164
2017-03-02T14:21:32.316Z,1176
2017-03-02T14:22:32.358Z,1124
2017-03-02T14:23:32.355Z,984
2017-03-02T14:24:32.365Z,900
2017-03-02T14:25:32.387Z,844
2017-03-02T14:26:32.431Z,788
2017-03-02T14:27:32.443Z,748
2017-03-02T14:28:32.058Z,712
2017-03-02T14:29:46.989Z,764
2017-03-02T14:30:32.503Z,796
2017-03-02T14:32:32.539Z,904
2017-03-02T14:33:32.559Z,848
2017-03-02T14:34:32.555Z,820
2017-03-02T14:35:32.631Z,760
2017-03-02T14:36:32.524Z,820
2017-03-02T14:37:32.640Z,756
2017-03-02T14:38:47.175Z,796
2017-03-02T14:39:47.182Z,772
2017-03-02T14:40:32.672Z,812
2017-03-02T14:41:32.701Z,880
2017-03-02T14:42:32.707Z,808
2017-03-02T14:43:47.254Z,760
2017-03-02T14:44:32.367Z,772
2017-03-02T14:45:32.969Z,684
2017-03-02T14:46:32.405Z,664
2017-03-02T14:47:32.412Z,644
2017-03-02T14:48:47.346Z,564